createdAt,value
2017-06-28T00:01:15.977Z,22.81
2017-06-28T00:02:16.184Z,22.84
2017-06-28T00:03:15.527Z,22.78
2017-06-28T00:04:16.075Z,22.81
2017-06-28T00:05:16.051Z,22.8
2017-06-28T00:06:15.932Z,22.81
2017-06-28T00:07:15.576Z,22.84
2017-06-28T00:08:15.808Z,22.8
2017-06-28T00:09:15.749Z,22.78
2017-06-28T00:10:15.728Z,22.75
2017-06-28T00:11:15.622Z,22.8
2017-06-28T00:12:15.258Z,22.8
2017-06-28T00:13:15.503Z,22.9
2017-06-28T00:14:15.440Z,22.85
2017-06-28T00:15:15.378Z,22.8
2017-06-28T00:16:15.309Z,22.81
2017-06-28T00:17:15.249Z,22.78
2017-06-28T00:18:15.186Z,22.85
2017-06-28T00:19:15.124Z,22.8
2017-06-28T00:20:14.757Z,22.84
2017-06-28T00:21:14.997Z,22.9
2017-06-28T00:22:14.937Z,22.85
2017-06-28T00:23:14.912Z,22.83
2017-06-28T00:24:14.807Z,22.8
2017-06-28T00:25:14.447Z,22.81
2017-06-28T00:26:14.682Z,22.81
2017-06-28T00:27:14.654Z,22.81
2017-06-28T00:28:14.556Z,22.84
2017-06-28T00:29:14.497Z,22.81
2017-06-28T00:30:14.430Z,22.87
2017-06-28T00:31:14.365Z,22.84
2017-06-28T00:32:14.308Z,22.81
2017-06-28T00:33:14.244Z,22.87
2017-06-28T00:34:14.184Z,22.83
2017-06-28T00:35:14.117Z,22.87
2017-06-28T00:36:14.071Z,22.84
2017-06-28T00:37:13.994Z,22.84
2017-06-28T00:38:13.953Z,22.83
2017-06-28T00:39:13.877Z,22.81
2017-06-28T00:40:13.811Z,22.76
2017-06-28T00:41:13.746Z,22.83
2017-06-28T00:42:13.689Z,22.8
2017-06-28T00:43:13.619Z,22.8
2017-06-28T00:44:13.556Z,22.84
2017-06-28T00:45:13.491Z,22.83
2017-06-28T00:46:13.431Z,22.83
2017-06-28T00:47:13.371Z,22.73
2017-06-28T00:48:13.310Z,22.81
2017-06-28T00:49:13.243Z,22.87
2017-06-28T00:50:13.183Z,22.8
2017-06-28T00:51:13.119Z,22.76
2017-06-28T00:52:13.057Z,22.76
2017-06-28T00:53:12.992Z,22.8
2017-06-28T00:54:12.931Z,22.7
2017-06-28T00:55:12.867Z,22.88
2017-06-28T00:56:12.810Z,22.72
2017-06-28T00:57:12.743Z,22.76
2017-06-28T00:58:12.675Z,22.76
2017-06-28T00:59:12.623Z,22.7
2017-06-28T01:00:12.558Z,22.8
2017-06-28T01:01:12.493Z,22.78
2017-06-28T01:02:12.132Z,22.73
2017-06-28T01:03:12.065Z,22.75
2017-06-28T01:04:12.327Z,22.72
2017-06-28T01:05:12.243Z,22.75
2017-06-28T01:06:12.182Z,22.75
2017-06-28T01:07:12.122Z,22.81
2017-06-28T01:08:11.764Z,22.75
2017-06-28T01:09:11.999Z,22.75
2017-06-28T01:10:11.996Z,22.75
2017-06-28T01:11:11.866Z,22.75
2017-06-28T01:12:11.503Z,22.7
2017-06-28T01:13:11.743Z,22.75
2017-06-28T01:14:11.679Z,22.76
2017-06-28T01:15:26.213Z,22.76
2017-06-28T01:16:11.555Z,22.81
2017-06-28T01:17:11.493Z,22.8
2017-06-28T01:18:11.437Z,22.7
2017-06-28T01:19:11.386Z,22.78
2017-06-28T01:20:11.319Z,22.73
2017-06-28T01:21:11.242Z,22.72
2017-06-28T01:22:11.179Z,22.84
2017-06-28T01:23:11.114Z,22.8
2017-06-28T01:24:11.165Z,22.75
2017-06-28T01:25:10.991Z,22.75
2017-06-28T01:26:10.931Z,22.76
2017-06-28T01:27:10.862Z,22.84
2017-06-28T01:28:10.809Z,22.78
2017-06-28T01:29:10.739Z,22.75
2017-06-28T01:30:10.684Z,22.81
2017-06-28T01:31:10.637Z,22.76
2017-06-28T01:32:10.553Z,22.81
2017-06-28T01:33:10.486Z,22.76
2017-06-28T01:34:10.440Z,22.76
2017-06-28T01:35:10.575Z,22.78
2017-06-28T01:36:10.303Z,22.75
2017-06-28T01:37:10.239Z,22.75
2017-06-28T01:38:10.179Z,22.73
2017-06-28T01:39:10.110Z,22.73
2017-06-28T01:40:10.179Z,22.8
2017-06-28T01:41:09.756Z,22.76
2017-06-28T01:42:09.931Z,22.76
2017-06-28T01:43:09.868Z,22.8
2017-06-28T01:44:09.828Z,22.78
2017-06-28T01:45:09.436Z,22.73
2017-06-28T01:46:09.675Z,22.78
2017-06-28T01:47:09.623Z,22.7
2017-06-28T01:48:09.552Z,22.78
2017-06-28T01:49:09.488Z,22.72
2017-06-28T01:50:09.464Z,22.78
2017-06-28T01:51:09.385Z,22.72
2017-06-28T01:52:09.298Z,22.75
2017-06-28T01:53:09.235Z,22.75
2017-06-28T01:54:09.176Z,22.75
2017-06-28T01:55:09.122Z,22.7
2017-06-28T01:56:09.048Z,22.76
2017-06-28T01:57:08.985Z,22.76
2017-06-28T01:58:08.923Z,22.75
2017-06-28T01:59:09.050Z,22.66
2017-06-28T02:00:08.814Z,22.75
2017-06-28T02:01:08.738Z,22.7
2017-06-28T02:02:08.673Z,22.73
2017-06-28T02:03:08.611Z,22.78
2017-06-28T02:04:08.247Z,22.7
2017-06-28T02:05:08.489Z,22.72
2017-06-28T02:06:08.426Z,22.76
2017-06-28T02:07:08.365Z,22.7
2017-06-28T02:08:08.318Z,22.68
2017-06-28T02:09:08.273Z,22.73
2017-06-28T02:10:07.882Z,22.75
2017-06-28T02:11:08.113Z,22.78
2017-06-28T02:12:08.050Z,22.62
2017-06-28T02:13:07.990Z,22.73
2017-06-28T02:14:07.920Z,22.72
2017-06-28T02:15:07.557Z,22.63
2017-06-28T02:16:07.798Z,22.63
2017-06-28T02:17:07.730Z,22.7
2017-06-28T02:18:07.670Z,22.73
2017-06-28T02:19:07.305Z,22.75
2017-06-28T02:20:07.746Z,22.7
2017-06-28T02:21:07.483Z,22.73
2017-06-28T02:22:07.415Z,22.8
2017-06-28T02:23:07.056Z,22.55
2017-06-28T02:24:07.300Z,22.72
2017-06-28T02:25:06.931Z,22.68
2017-06-28T02:26:06.871Z,22.73
2017-06-28T02:27:07.110Z,22.66
2017-06-28T02:28:07.057Z,22.68
2017-06-28T02:29:06.985Z,22.65
2017-06-28T02:30:06.923Z,22.7
2017-06-28T02:31:06.859Z,22.7
2017-06-28T02:32:06.493Z,22.59
2017-06-28T02:33:06.732Z,22.63
2017-06-28T02:34:06.421Z,22.69
2017-06-28T02:35:06.349Z,22.66
2017-06-28T02:36:06.546Z,22.65
2017-06-28T02:37:06.484Z,22.66
2017-06-28T02:38:06.433Z,22.59
2017-06-28T02:39:06.358Z,22.68
2017-06-28T02:40:06.302Z,22.66
2017-06-28T02:41:06.228Z,22.62
2017-06-28T02:42:06.167Z,22.62
2017-06-28T02:43:06.111Z,22.65
2017-06-28T02:44:06.053Z,22.65
2017-06-28T02:45:05.982Z,22.69
2017-06-28T02:46:05.311Z,22.6
2017-06-28T02:47:05.855Z,22.63
2017-06-28T02:48:05.794Z,22.65
2017-06-28T02:49:05.730Z,22.69
2017-06-28T02:50:05.920Z,22.63
2017-06-28T02:51:05.608Z,22.65
2017-06-28T02:52:05.441Z,22.68
2017-06-28T02:53:05.479Z,22.63
2017-06-28T02:54:05.411Z,22.57
2017-06-28T02:55:05.052Z,22.59
2017-06-28T02:56:05.287Z,22.66
2017-06-28T02:57:05.472Z,22.62
2017-06-28T02:58:05.167Z,22.63
2017-06-28T02:59:05.101Z,22.69
2017-06-28T03:00:04.736Z,22.69
2017-06-28T03:01:04.979Z,22.57
2017-06-28T03:02:04.914Z,22.63
2017-06-28T03:03:04.590Z,22.63
2017-06-28T03:04:04.796Z,22.69
2017-06-28T03:05:04.780Z,22.65
2017-06-28T03:06:04.366Z,22.6
2017-06-28T03:07:04.599Z,22.69
2017-06-28T03:08:04.264Z,22.66
2017-06-28T03:09:04.477Z,22.51
2017-06-28T03:10:04.114Z,22.55
2017-06-28T03:11:04.371Z,22.68
2017-06-28T03:12:04.309Z,22.54
2017-06-28T03:13:04.226Z,22.51
2017-06-28T03:14:04.174Z,22.59
2017-06-28T03:15:04.185Z,22.6
2017-06-28T03:16:03.735Z,22.53
2017-06-28T03:17:03.970Z,22.59
2017-06-28T03:18:03.911Z,22.54
2017-06-28T03:19:03.847Z,22.62
2017-06-28T03:20:03.783Z,22.6
2017-06-28T03:21:03.730Z,22.6
2017-06-28T03:22:03.658Z,22.59
2017-06-28T03:23:03.598Z,22.59
2017-06-28T03:24:03.538Z,22.65
2017-06-28T03:25:03.824Z,22.57
2017-06-28T03:26:03.411Z,22.6
2017-06-28T03:27:03.344Z,22.59
2017-06-28T03:28:03.323Z,22.57
2017-06-28T03:29:03.235Z,22.6
2017-06-28T03:30:03.158Z,22.59
2017-06-28T03:31:03.090Z,22.6
2017-06-28T03:32:03.043Z,22.54
2017-06-28T03:33:02.974Z,22.63
2017-06-28T03:34:02.903Z,22.57
2017-06-28T03:35:02.582Z,22.55
2017-06-28T03:36:02.781Z,22.57
2017-06-28T03:37:02.724Z,22.55
2017-06-28T03:38:02.659Z,22.59
2017-06-28T03:39:02.602Z,22.54
2017-06-28T03:40:02.527Z,22.57
2017-06-28T03:41:02.465Z,22.59
2017-06-28T03:42:02.105Z,22.53
2017-06-28T03:43:02.341Z,22.6
2017-06-28T03:44:02.287Z,22.55
2017-06-28T03:45:02.277Z,22.55
2017-06-28T03:46:02.158Z,22.51
2017-06-28T03:47:02.090Z,22.5
2017-06-28T03:48:02.045Z,22.57
2017-06-28T03:49:01.964Z,22.51
2017-06-28T03:50:01.905Z,22.57
2017-06-28T03:51:01.840Z,22.55
2017-06-28T03:52:01.779Z,22.57
2017-06-28T03:53:01.738Z,22.51
2017-06-28T03:54:01.651Z,22.53
2017-06-28T03:55:01.594Z,22.59
2017-06-28T03:56:01.551Z,22.51
2017-06-28T03:57:01.464Z,22.47
2017-06-28T03:58:01.397Z,22.47
2017-06-28T03:59:01.346Z,22.6
2017-06-28T04:00:01.279Z,22.53
2017-06-28T04:01:00.916Z,22.54
2017-06-28T04:02:00.846Z,22.51
2017-06-28T04:03:01.102Z,22.57
2017-06-28T04:04:01.019Z,22.59
2017-06-28T04:05:00.961Z,22.55
2017-06-28T04:06:00.897Z,22.54
2017-06-28T04:07:00.835Z,22.57
2017-06-28T04:08:00.771Z,22.53
2017-06-28T04:09:00.413Z,22.6
2017-06-28T04:10:00.648Z,22.57
2017-06-28T04:11:00.583Z,22.57
2017-06-28T04:12:00.522Z,22.59
2017-06-28T04:13:00.163Z,22.57
2017-06-28T04:14:00.394Z,22.54
2017-06-28T04:15:00.381Z,22.57
2017-06-28T04:16:00.272Z,22.54
2017-06-28T04:17:00.220Z,22.59
2017-06-28T04:18:00.144Z,22.6
2017-06-28T04:19:00.078Z,22.62
2017-06-28T04:20:00.020Z,22.55
2017-06-28T04:20:59.958Z,22.6
2017-06-28T04:21:59.894Z,22.69
2017-06-28T04:22:59.835Z,22.63
2017-06-28T04:23:59.784Z,22.63
2017-06-28T04:24:59.411Z,22.63
2017-06-28T04:25:59.642Z,22.59
2017-06-28T04:26:59.277Z,22.6
2017-06-28T04:27:59.537Z,22.62
2017-06-28T04:28:59.154Z,22.59
2017-06-28T04:29:59.387Z,22.65
2017-06-28T04:30:59.357Z,22.63
2017-06-28T04:31:59.302Z,22.68
2017-06-28T04:32:58.896Z,22.62
2017-06-28T04:33:58.864Z,22.69
2017-06-28T04:34:59.078Z,22.63
2017-06-28T04:35:58.713Z,22.62
2017-06-28T04:36:58.962Z,22.62
2017-06-28T04:37:58.891Z,22.59
2017-06-28T04:38:58.827Z,22.63
2017-06-28T04:39:58.776Z,22.66
2017-06-28T04:40:58.700Z,22.63
2017-06-28T04:41:58.630Z,22.66
2017-06-28T04:42:58.578Z,22.63
2017-06-28T04:43:58.513Z,22.66
2017-06-28T04:44:58.156Z,22.65
2017-06-28T04:45:58.382Z,22.63
2017-06-28T04:46:58.360Z,22.62
2017-06-28T04:47:58.260Z,22.62
2017-06-28T04:48:58.201Z,22.66
2017-06-28T04:49:58.137Z,22.62
2017-06-28T04:50:58.077Z,22.57
2017-06-28T04:51:57.706Z,22.62
2017-06-28T04:52:57.946Z,22.63
2017-06-28T04:53:57.889Z,22.66
2017-06-28T04:54:57.838Z,22.66
2017-06-28T04:55:57.755Z,22.62
2017-06-28T04:56:57.696Z,22.7
2017-06-28T04:57:57.636Z,22.7
2017-06-28T04:58:57.573Z,22.73
2017-06-28T04:59:57.513Z,22.63
2017-06-28T05:00:57.143Z,22.75
2017-06-28T05:01:57.382Z,22.6
2017-06-28T05:02:57.314Z,22.73
2017-06-28T05:03:56.951Z,22.7
2017-06-28T05:04:57.193Z,22.73
2017-06-28T05:05:57.131Z,22.69
2017-06-28T05:06:56.766Z,22.75
2017-06-28T05:07:57.032Z,22.75
2017-06-28T05:08:56.945Z,22.72
2017-06-28T05:09:56.580Z,22.72
2017-06-28T05:10:57.069Z,22.69
2017-06-28T05:11:56.759Z,22.7
2017-06-28T05:12:56.717Z,22.72
2017-06-28T05:13:56.631Z,22.7
2017-06-28T05:14:56.567Z,22.73
2017-06-28T05:15:56.503Z,22.73
2017-06-28T05:16:56.138Z,22.72
2017-06-28T05:17:56.380Z,22.7
2017-06-28T05:18:56.317Z,22.75
2017-06-28T05:19:56.253Z,22.72
2017-06-28T05:20:55.892Z,22.72
2017-06-28T05:21:56.126Z,22.75
2017-06-28T05:22:56.065Z,22.7
2017-06-28T05:23:55.708Z,22.76
2017-06-28T05:24:55.943Z,22.73
2017-06-28T05:25:55.878Z,22.73
2017-06-28T05:26:55.816Z,22.7
2017-06-28T05:27:55.755Z,22.69
2017-06-28T05:28:55.688Z,22.75
2017-06-28T05:29:55.324Z,22.8
2017-06-28T05:30:55.258Z,22.7
2017-06-28T05:31:55.498Z,22.75
2017-06-28T05:32:55.442Z,22.76
2017-06-28T05:33:55.381Z,22.78
2017-06-28T05:34:55.335Z,22.72
2017-06-28T05:35:55.482Z,22.68
2017-06-28T05:36:55.199Z,22.73
2017-06-28T05:37:55.129Z,22.72
2017-06-28T05:38:55.058Z,22.76
2017-06-28T05:39:54.999Z,22.7
2017-06-28T05:40:54.944Z,22.73
2017-06-28T05:41:54.575Z,22.72
2017-06-28T05:42:54.507Z,22.69
2017-06-28T05:43:54.745Z,22.73
2017-06-28T05:44:54.677Z,22.8
2017-06-28T05:45:54.626Z,22.7
2017-06-28T05:46:54.568Z,22.68
2017-06-28T05:47:54.498Z,22.7
2017-06-28T05:48:54.486Z,22.73
2017-06-28T05:49:54.064Z,22.75
2017-06-28T05:50:54.002Z,22.8
2017-06-28T05:51:53.944Z,22.75
2017-06-28T05:52:54.186Z,22.72
2017-06-28T05:53:54.125Z,22.76
2017-06-28T05:54:54.056Z,22.76
2017-06-28T05:55:53.990Z,22.72
2017-06-28T05:56:53.626Z,22.7
2017-06-28T05:57:53.887Z,22.76
2017-06-28T05:58:53.805Z,22.69
2017-06-28T05:59:53.741Z,22.72
2017-06-28T06:00:53.681Z,22.8
2017-06-28T06:01:53.313Z,22.68
2017-06-28T06:02:53.553Z,22.73
2017-06-28T06:03:53.492Z,22.75
2017-06-28T06:04:52.827Z,22.75
2017-06-28T06:05:53.371Z,22.73
2017-06-28T06:06:53.303Z,22.73
2017-06-28T06:07:52.650Z,22.72
2017-06-28T06:08:52.879Z,22.76
2017-06-28T06:09:53.122Z,22.78
2017-06-28T06:10:53.058Z,22.75
2017-06-28T06:11:52.991Z,22.69
2017-06-28T06:12:52.626Z,22.81
2017-06-28T06:13:52.863Z,22.76
2017-06-28T06:14:52.799Z,22.78
2017-06-28T06:15:52.751Z,22.72
2017-06-28T06:16:52.373Z,22.83
2017-06-28T06:17:52.632Z,22.73
2017-06-28T06:18:52.564Z,22.8
2017-06-28T06:19:52.509Z,22.81
2017-06-28T06:20:52.440Z,22.78
2017-06-28T06:21:52.366Z,22.78
2017-06-28T06:22:52.008Z,22.72
2017-06-28T06:23:52.248Z,22.81
2017-06-28T06:24:51.874Z,22.84
2017-06-28T06:25:51.813Z,22.83
2017-06-28T06:26:52.052Z,22.8
2017-06-28T06:27:51.991Z,22.73
2017-06-28T06:28:51.925Z,22.75
2017-06-28T06:29:51.867Z,22.76
2017-06-28T06:30:51.804Z,22.73
2017-06-28T06:31:51.743Z,22.76
2017-06-28T06:32:51.372Z,22.72
2017-06-28T06:33:51.607Z,22.78
2017-06-28T06:34:51.551Z,22.78
2017-06-28T06:35:51.495Z,22.78
2017-06-28T06:36:51.424Z,22.75
2017-06-28T06:37:51.375Z,22.76
2017-06-28T06:38:51.299Z,22.7
2017-06-28T06:39:51.234Z,22.8
2017-06-28T06:40:51.178Z,22.73
2017-06-28T06:41:51.130Z,22.8
2017-06-28T06:42:51.049Z,22.75
2017-06-28T06:43:50.986Z,22.75
2017-06-28T06:44:50.925Z,22.81
2017-06-28T06:45:50.560Z,22.73
2017-06-28T06:46:50.802Z,22.72
2017-06-28T06:47:50.744Z,22.76
2017-06-28T06:48:50.679Z,22.84
2017-06-28T06:49:50.607Z,22.75
2017-06-28T06:50:50.549Z,22.81
2017-06-28T06:51:50.482Z,22.75
2017-06-28T06:52:50.420Z,22.75
2017-06-28T06:53:50.354Z,22.76
2017-06-28T06:54:50.299Z,22.72
2017-06-28T06:55:50.231Z,22.73
2017-06-28T06:56:50.169Z,22.68
2017-06-28T06:57:50.108Z,22.76
2017-06-28T06:58:49.744Z,22.76
2017-06-28T06:59:49.982Z,22.81
2017-06-28T07:00:49.919Z,22.78
2017-06-28T07:01:49.566Z,22.84
2017-06-28T07:02:49.792Z,22.93
2017-06-28T07:03:49.729Z,22.91
2017-06-28T07:04:49.668Z,22.91
2017-06-28T07:05:49.616Z,23.05
2017-06-28T07:06:49.551Z,23.03
2017-06-28T07:07:49.179Z,23.03
2017-06-28T07:08:49.421Z,23.03
2017-06-28T07:09:49.356Z,23.05
2017-06-28T07:10:49.294Z,23.08
2017-06-28T07:11:49.241Z,23.12
2017-06-28T07:12:48.879Z,23.13
2017-06-28T07:13:49.112Z,23.09
2017-06-28T07:14:49.045Z,23.15
2017-06-28T07:15:48.981Z,23.2
2017-06-28T07:16:48.952Z,23.2
2017-06-28T07:17:48.865Z,23.18
2017-06-28T07:18:48.812Z,23.27
2017-06-28T07:19:48.730Z,23.34
2017-06-28T07:20:48.670Z,23.28
2017-06-28T07:21:48.605Z,23.37
2017-06-28T07:22:48.256Z,23.37
2017-06-28T07:23:48.179Z,23.27
2017-06-28T07:24:48.420Z,23.34
2017-06-28T07:25:48.054Z,23.39
2017-06-28T07:26:48.295Z,23.44
2017-06-28T07:27:48.238Z,23.46
2017-06-28T07:28:48.173Z,23.44
2017-06-28T07:29:48.112Z,23.48
2017-06-28T07:30:48.044Z,23.46
2017-06-28T07:31:47.985Z,23.46
2017-06-28T07:32:47.926Z,23.55
2017-06-28T07:33:47.905Z,23.54
2017-06-28T07:34:47.496Z,23.54
2017-06-28T07:35:47.734Z,23.55
2017-06-28T07:36:47.484Z,23.47
2017-06-28T07:37:47.610Z,23.54
2017-06-28T07:38:47.551Z,23.59
2017-06-28T07:39:47.488Z,23.62
2017-06-28T07:40:47.430Z,23.61
2017-06-28T07:41:47.388Z,23.59
2017-06-28T07:42:47.019Z,23.61
2017-06-28T07:43:47.255Z,23.66
2017-06-28T07:44:47.176Z,23.65
2017-06-28T07:45:47.113Z,23.68
2017-06-28T07:46:47.055Z,23.65
2017-06-28T07:47:46.988Z,23.66
2017-06-28T07:48:46.928Z,23.74
2017-06-28T07:49:46.868Z,23.69
2017-06-28T07:50:46.510Z,23.73
2017-06-28T07:51:46.745Z,23.69
2017-06-28T07:52:46.686Z,23.76
2017-06-28T07:53:46.620Z,23.81
2017-06-28T07:54:46.559Z,23.77
2017-06-28T07:55:46.504Z,23.83
2017-06-28T07:56:46.444Z,23.83
2017-06-28T07:57:46.100Z,23.83
2017-06-28T07:58:46.010Z,23.83
2017-06-28T07:59:45.958Z,23.88
2017-06-28T08:00:45.884Z,23.8
2017-06-28T08:01:45.826Z,23.88
2017-06-28T08:02:46.105Z,23.92
2017-06-28T08:03:46.001Z,23.87
2017-06-28T08:04:45.955Z,23.96
2017-06-28T08:05:45.878Z,23.81
2017-06-28T08:06:45.815Z,23.88
2017-06-28T08:07:45.756Z,23.83
2017-06-28T08:08:45.726Z,23.92
2017-06-28T08:09:45.635Z,23.92
2017-06-28T08:10:45.583Z,23.87
2017-06-28T08:11:45.521Z,23.91
2017-06-28T08:12:45.451Z,23.92
2017-06-28T08:13:45.400Z,23.98
2017-06-28T08:14:45.327Z,23.96
2017-06-28T08:15:45.267Z,23.98
2017-06-28T08:16:45.201Z,23.96
2017-06-28T08:17:45.207Z,24.02
2017-06-28T08:18:45.089Z,24.05
2017-06-28T08:19:45.018Z,24.06
2017-06-28T08:20:44.957Z,24.02
2017-06-28T08:21:44.892Z,24.01
2017-06-28T08:22:44.842Z,24.03
2017-06-28T08:23:44.822Z,24.1
2017-06-28T08:24:44.711Z,24.16
2017-06-28T08:25:44.347Z,24.08
2017-06-28T08:26:44.283Z,24.1
2017-06-28T08:27:44.530Z,24.16
2017-06-28T08:28:44.463Z,24.11
2017-06-28T08:29:44.426Z,24.18
2017-06-28T08:30:44.354Z,24.13
2017-06-28T08:31:44.021Z,24.14
2017-06-28T08:32:44.230Z,24.21
2017-06-28T08:33:43.857Z,24.08
2017-06-28T08:34:44.097Z,24.05
2017-06-28T08:35:44.035Z,24.06
2017-06-28T08:36:43.982Z,24.08
2017-06-28T08:37:43.915Z,23.99
2017-06-28T08:38:43.869Z,24.03
2017-06-28T08:39:43.485Z,24.05
2017-06-28T08:40:43.726Z,24.06
2017-06-28T08:41:43.699Z,23.96
2017-06-28T08:42:43.616Z,23.96
2017-06-28T08:43:43.543Z,23.93
2017-06-28T08:44:42.879Z,23.93
2017-06-28T08:45:43.419Z,23.91
2017-06-28T08:46:43.362Z,23.98
2017-06-28T08:47:43.299Z,23.93
2017-06-28T08:48:43.244Z,23.91
2017-06-28T08:49:43.173Z,23.92
2017-06-28T08:50:43.113Z,23.88
2017-06-28T08:51:43.098Z,23.93
2017-06-28T08:52:42.993Z,23.91
2017-06-28T08:53:42.934Z,23.86
2017-06-28T08:54:42.582Z,23.92
2017-06-28T08:55:42.812Z,23.91
2017-06-28T08:56:42.742Z,23.91
2017-06-28T08:57:42.749Z,23.93
2017-06-28T08:58:42.619Z,23.87
2017-06-28T08:59:42.562Z,23.86
2017-06-28T09:00:42.529Z,23.87
2017-06-28T09:01:42.439Z,23.87
2017-06-28T09:02:42.373Z,23.88
2017-06-28T09:03:42.313Z,23.96
2017-06-28T09:04:42.263Z,23.87
2017-06-28T09:05:42.216Z,23.87
2017-06-28T09:06:42.158Z,23.96
2017-06-28T09:07:42.072Z,23.88
2017-06-28T09:08:42.007Z,23.87
2017-06-28T09:09:41.942Z,23.93
2017-06-28T09:10:41.879Z,23.84
2017-06-28T09:11:41.825Z,23.92
2017-06-28T09:12:41.756Z,23.84
2017-06-28T09:13:41.699Z,23.87
2017-06-28T09:14:41.636Z,23.87
2017-06-28T09:15:41.579Z,23.92
2017-06-28T09:16:41.548Z,23.81
2017-06-28T09:17:41.149Z,23.92
2017-06-28T09:18:41.390Z,23.8
2017-06-28T09:19:41.710Z,23.84
2017-06-28T09:20:41.272Z,23.83
2017-06-28T09:21:41.212Z,23.91
2017-06-28T09:22:41.150Z,23.84
2017-06-28T09:23:41.285Z,23.93
2017-06-28T09:24:41.234Z,23.8
2017-06-28T09:25:41.621Z,23.95
2017-06-28T09:26:40.901Z,23.92
2017-06-28T09:27:41.048Z,23.87
2017-06-28T09:28:40.722Z,23.92
